ANA112 RJTT-KORD
Flight info
| Callsign | ANA112 |
|---|---|
| Flight time | N/A |
| Altitude | 33000 |
| Route | INUBO Y808 NOLAX Y812 ADNAP OTR5 KALNA KALIG CUTEE DCT 48N170E 50N180E/N0495F350 51N170W 52N160W 53N150W 54N140W DCT FRIED DCT 54N130W/N0482F370 52N120W 50N113W DCT GGW DCT DIK DCT KP06A DCT HSTIN Q156 ZZIPR FYTTE7 |
| Aircraft | B77W/H-SDE1E2E3FGHIJ2J3J4J5M1RWXY/LB1D1 |
Departure
| Time | N/A |
|---|---|
| Airport | Tokyo Haneda International Airport (RJTT) |
Arrival
| Time | 2026-05-01 14:33 |
|---|---|
| Airport | Chicago O'Hare International Airport (KORD) |
| Time | Latitude | Longitude | Altitude | Speed | Heading |
|---|---|---|---|---|---|
| 2026-05-01 13:48 | 44.05966 | -94.11759 | 37145 ft | 518 kts | 117° |
| 2026-05-01 13:48 | 44.04324 | -94.07291 | 37146 ft | 518 kts | 117° |
| 2026-05-01 13:49 | 44.01039 | -93.98374 | 37141 ft | 518 kts | 117° |
| 2026-05-01 13:49 | 43.97827 | -93.89412 | 37136 ft | 518 kts | 115° |
| 2026-05-01 13:50 | 43.94788 | -93.80409 | 37135 ft | 519 kts | 115° |
| 2026-05-01 13:50 | 43.91730 | -93.71336 | 37139 ft | 519 kts | 115° |
| 2026-05-01 13:51 | 43.88638 | -93.62283 | 37138 ft | 520 kts | 116° |
| 2026-05-01 13:51 | 43.85521 | -93.53242 | 37116 ft | 520 kts | 116° |
| 2026-05-01 13:52 | 43.82416 | -93.44271 | 37117 ft | 520 kts | 116° |
| 2026-05-01 13:52 | 43.79282 | -93.35240 | 37111 ft | 520 kts | 116° |
| 2026-05-01 13:53 | 43.76141 | -93.26215 | 37103 ft | 520 kts | 116° |
| 2026-05-01 13:53 | 43.71419 | -93.12704 | 37105 ft | 520 kts | 116° |
| 2026-05-01 13:54 | 43.68283 | -93.03766 | 37107 ft | 521 kts | 116° |
| 2026-05-01 13:54 | 43.65114 | -92.94764 | 37101 ft | 521 kts | 116° |
| 2026-05-01 13:55 | 43.61937 | -92.85771 | 37104 ft | 521 kts | 116° |
| 2026-05-01 13:55 | 43.58751 | -92.76781 | 37089 ft | 522 kts | 117° |
| 2026-05-01 13:56 | 43.55557 | -92.67795 | 37101 ft | 522 kts | 117° |
| 2026-05-01 13:56 | 43.52372 | -92.58868 | 37115 ft | 523 kts | 117° |
| 2026-05-01 13:57 | 43.49154 | -92.49874 | 37112 ft | 524 kts | 117° |
| 2026-05-01 13:57 | 43.45926 | -92.40883 | 37113 ft | 524 kts | 117° |
| 2026-05-01 13:58 | 43.42691 | -92.31902 | 37112 ft | 524 kts | 117° |
| 2026-05-01 13:58 | 43.39466 | -92.22976 | 37095 ft | 525 kts | 117° |
| 2026-05-01 13:59 | 43.36211 | -92.13998 | 37108 ft | 525 kts | 118° |
| 2026-05-01 13:59 | 43.32946 | -92.05019 | 37118 ft | 526 kts | 118° |
| 2026-05-01 14:00 | 43.29667 | -91.96033 | 37115 ft | 526 kts | 118° |
| 2026-05-01 14:00 | 43.26380 | -91.87051 | 37098 ft | 527 kts | 118° |
| 2026-05-01 14:01 | 43.23105 | -91.78132 | 37097 ft | 527 kts | 118° |
| 2026-05-01 14:01 | 43.19800 | -91.69153 | 37088 ft | 528 kts | 118° |
| 2026-05-01 14:02 | 43.16542 | -91.60130 | 37104 ft | 528 kts | 117° |
| 2026-05-01 14:02 | 43.13428 | -91.51010 | 37116 ft | 529 kts | 116° |
| 2026-05-01 14:03 | 43.10320 | -91.41950 | 37122 ft | 530 kts | 117° |
| 2026-05-01 14:03 | 43.07155 | -91.32843 | 37129 ft | 530 kts | 117° |
| 2026-05-01 14:04 | 43.03980 | -91.23742 | 37129 ft | 531 kts | 117° |
| 2026-05-01 14:04 | 43.00833 | -91.14694 | 37104 ft | 531 kts | 117° |
| 2026-05-01 14:05 | 42.97660 | -91.05581 | 37132 ft | 531 kts | 117° |
| 2026-05-01 14:05 | 42.94472 | -90.96462 | 37126 ft | 533 kts | 117° |
| 2026-05-01 14:06 | 42.91272 | -90.87343 | 37123 ft | 533 kts | 117° |
| 2026-05-01 14:06 | 42.88083 | -90.78281 | 37124 ft | 534 kts | 117° |
| 2026-05-01 14:07 | 42.84863 | -90.69164 | 37113 ft | 534 kts | 117° |
| 2026-05-01 14:08 | 42.79976 | -90.55413 | 36047 ft | 545 kts | 117° |
| 2026-05-01 14:08 | 42.78325 | -90.50776 | 35255 ft | 544 kts | 117° |
| 2026-05-01 14:08 | 42.76686 | -90.46178 | 34366 ft | 535 kts | 117° |
| 2026-05-01 14:08 | 42.75078 | -90.41673 | 33378 ft | 524 kts | 117° |
| 2026-05-01 14:09 | 42.73523 | -90.37324 | 32448 ft | 513 kts | 117° |
| 2026-05-01 14:09 | 42.71976 | -90.33006 | 31505 ft | 502 kts | 116° |
| 2026-05-01 14:09 | 42.70460 | -90.28783 | 30645 ft | 492 kts | 116° |
| 2026-05-01 14:09 | 42.68969 | -90.24645 | 30091 ft | 486 kts | 116° |
| 2026-05-01 14:10 | 42.67471 | -90.20508 | 29413 ft | 491 kts | 116° |
| 2026-05-01 14:10 | 42.65951 | -90.16319 | 28797 ft | 498 kts | 116° |
| 2026-05-01 14:10 | 42.64417 | -90.12100 | 28179 ft | 497 kts | 116° |
| 2026-05-01 14:10 | 42.62895 | -90.07916 | 27587 ft | 490 kts | 116° |
| 2026-05-01 14:11 | 42.61415 | -90.03850 | 27000 ft | 484 kts | 116° |
| 2026-05-01 14:11 | 42.58463 | -89.95755 | 25826 ft | 474 kts | 116° |
| 2026-05-01 14:11 | 42.57007 | -89.91771 | 25256 ft | 469 kts | 116° |
| 2026-05-01 14:12 | 42.55563 | -89.87823 | 24694 ft | 465 kts | 116° |
| 2026-05-01 14:12 | 42.54132 | -89.83915 | 24136 ft | 461 kts | 116° |
| 2026-05-01 14:12 | 42.52708 | -89.80035 | 23549 ft | 457 kts | 116° |
| 2026-05-01 14:12 | 42.51480 | -89.76086 | 22890 ft | 453 kts | 104° |
| 2026-05-01 14:13 | 42.50906 | -89.71989 | 22357 ft | 445 kts | 96° |
| 2026-05-01 14:13 | 42.50627 | -89.69190 | 21979 ft | 442 kts | 96° |
| 2026-05-01 14:13 | 42.50085 | -89.63759 | 21248 ft | 437 kts | 96° |
| 2026-05-01 14:13 | 42.49640 | -89.59704 | 20706 ft | 433 kts | 97° |
| 2026-05-01 14:14 | 42.49167 | -89.55685 | 20157 ft | 430 kts | 98° |
| 2026-05-01 14:14 | 42.48680 | -89.51700 | 19635 ft | 427 kts | 98° |
| 2026-05-01 14:14 | 42.48194 | -89.47787 | 19466 ft | 415 kts | 98° |
| 2026-05-01 14:14 | 42.47722 | -89.43985 | 19299 ft | 404 kts | 98° |
| 2026-05-01 14:15 | 42.47261 | -89.40280 | 19097 ft | 394 kts | 98° |
| 2026-05-01 14:15 | 42.46818 | -89.36686 | 18694 ft | 391 kts | 98° |
| 2026-05-01 14:15 | 42.46373 | -89.33059 | 18274 ft | 389 kts | 97° |
| 2026-05-01 14:15 | 42.45932 | -89.29457 | 17805 ft | 387 kts | 98° |
| 2026-05-01 14:16 | 42.45491 | -89.25873 | 17328 ft | 385 kts | 98° |
| 2026-05-01 14:16 | 42.45052 | -89.22312 | 16896 ft | 382 kts | 98° |
| 2026-05-01 14:16 | 42.44615 | -89.18777 | 16462 ft | 379 kts | 98° |
| 2026-05-01 14:16 | 42.44179 | -89.15270 | 16039 ft | 376 kts | 98° |
| 2026-05-01 14:17 | 42.43744 | -89.11788 | 15625 ft | 373 kts | 98° |
| 2026-05-01 14:17 | 42.43312 | -89.08387 | 15222 ft | 371 kts | 98° |
| 2026-05-01 14:17 | 42.42871 | -89.04958 | 14794 ft | 368 kts | 98° |
| 2026-05-01 14:17 | 42.42440 | -89.01552 | 14377 ft | 366 kts | 98° |
| 2026-05-01 14:18 | 42.42018 | -88.98171 | 13984 ft | 363 kts | 98° |
| 2026-05-01 14:18 | 42.41597 | -88.94810 | 13536 ft | 361 kts | 98° |
| 2026-05-01 14:18 | 42.41178 | -88.91496 | 13282 ft | 352 kts | 98° |
| 2026-05-01 14:18 | 42.40906 | -88.89352 | 13166 ft | 346 kts | 98° |
| 2026-05-01 14:19 | 42.40362 | -88.85084 | 12656 ft | 343 kts | 98° |
| 2026-05-01 14:19 | 42.39956 | -88.81919 | 12255 ft | 340 kts | 98° |
| 2026-05-01 14:19 | 42.39558 | -88.78823 | 11909 ft | 338 kts | 98° |
| 2026-05-01 14:19 | 42.39158 | -88.75705 | 11537 ft | 335 kts | 98° |
| 2026-05-01 14:20 | 42.38760 | -88.72612 | 11247 ft | 330 kts | 98° |
| 2026-05-01 14:20 | 42.37992 | -88.66690 | 11059 ft | 309 kts | 97° |
| 2026-05-01 14:20 | 42.37619 | -88.63830 | 11024 ft | 308 kts | 97° |
| 2026-05-01 14:21 | 42.37247 | -88.60977 | 11026 ft | 308 kts | 97° |
| 2026-05-01 14:21 | 42.36876 | -88.58123 | 11020 ft | 309 kts | 97° |
| 2026-05-01 14:21 | 42.36506 | -88.55295 | 11022 ft | 309 kts | 97° |
| 2026-05-01 14:22 | 42.35753 | -88.49560 | 10876 ft | 312 kts | 97° |
| 2026-05-01 14:22 | 42.35372 | -88.46661 | 10580 ft | 313 kts | 98° |
| 2026-05-01 14:22 | 42.34992 | -88.43774 | 10277 ft | 311 kts | 97° |
| 2026-05-01 14:22 | 42.34611 | -88.40913 | 9977 ft | 306 kts | 99° |
| 2026-05-01 14:23 | 42.33881 | -88.38262 | 9590 ft | 301 kts | 123° |
| 2026-05-01 14:23 | 42.32630 | -88.36030 | 9288 ft | 297 kts | 127° |
| 2026-05-01 14:23 | 42.31391 | -88.33791 | 9081 ft | 297 kts | 125° |
| 2026-05-01 14:23 | 42.30178 | -88.31540 | 9039 ft | 298 kts | 125° |
| 2026-05-01 14:24 | 42.28824 | -88.29476 | 8992 ft | 299 kts | 143° |
| 2026-05-01 14:24 | 42.26956 | -88.28225 | 8796 ft | 303 kts | 167° |
| 2026-05-01 14:24 | 42.24886 | -88.27711 | 8507 ft | 303 kts | 174° |
| 2026-05-01 14:24 | 42.22801 | -88.27371 | 8191 ft | 301 kts | 176° |
| 2026-05-01 14:25 | 42.20733 | -88.27066 | 7871 ft | 298 kts | 176° |
| 2026-05-01 14:25 | 42.18678 | -88.26774 | 7555 ft | 296 kts | 176° |
| 2026-05-01 14:25 | 42.16637 | -88.26493 | 7247 ft | 294 kts | 176° |
| 2026-05-01 14:25 | 42.14608 | -88.26226 | 6926 ft | 292 kts | 176° |
| 2026-05-01 14:26 | 42.12620 | -88.25972 | 6633 ft | 290 kts | 176° |
| 2026-05-01 14:26 | 42.08620 | -88.25483 | 5988 ft | 287 kts | 176° |
| 2026-05-01 14:26 | 42.06635 | -88.25248 | 5661 ft | 285 kts | 176° |
| 2026-05-01 14:27 | 42.04663 | -88.25020 | 5366 ft | 284 kts | 176° |
| 2026-05-01 14:27 | 42.02704 | -88.24798 | 5092 ft | 280 kts | 176° |
| 2026-05-01 14:27 | 42.00802 | -88.24588 | 5042 ft | 269 kts | 176° |
| 2026-05-01 14:28 | 41.97432 | -88.23376 | 5014 ft | 255 kts | 136° |
| 2026-05-01 14:28 | 41.96447 | -88.21456 | 4948 ft | 250 kts | 105° |
| 2026-05-01 14:28 | 41.96295 | -88.19182 | 4596 ft | 242 kts | 78° |
| 2026-05-01 14:28 | 41.96495 | -88.16959 | 4273 ft | 240 kts | 82° |
| 2026-05-01 14:29 | 41.96540 | -88.14762 | 3971 ft | 231 kts | 86° |
| 2026-05-01 14:29 | 41.96535 | -88.12650 | 3610 ft | 219 kts | 86° |
| 2026-05-01 14:30 | 41.96544 | -88.07073 | 2825 ft | 194 kts | 86° |
| 2026-05-01 14:30 | 41.96547 | -88.05297 | 2521 ft | 185 kts | 86° |
| 2026-05-01 14:30 | 41.96550 | -88.03636 | 2262 ft | 171 kts | 86° |
| 2026-05-01 14:31 | 41.96556 | -88.00712 | 1860 ft | 151 kts | 86° |
| 2026-05-01 14:31 | 41.96562 | -87.99291 | 1649 ft | 152 kts | 85° |
| 2026-05-01 14:31 | 41.96556 | -87.97885 | 1471 ft | 149 kts | 89° |
| 2026-05-01 14:31 | 41.96554 | -87.96461 | 1234 ft | 154 kts | 87° |
| 2026-05-01 14:32 | 41.96571 | -87.95033 | 994 ft | 154 kts | 88° |
| 2026-05-01 14:32 | 41.96559 | -87.93612 | 791 ft | 149 kts | 87° |
| 2026-05-01 14:32 | 41.96571 | -87.92291 | 676 ft | 133 kts | 89° |
| 2026-05-01 14:32 | 41.96574 | -87.91229 | 673 ft | 85 kts | 90° |
| 2026-05-01 14:33 | 41.96577 | -87.90687 | 675 ft | 42 kts | 83° |
| 2026-05-01 14:33 | 41.96659 | -87.90394 | 673 ft | 22 kts | 47° |
| 2026-05-01 14:33 | 41.96733 | -87.90428 | 673 ft | 20 kts | 288° |
| 2026-05-01 14:33 | 41.96736 | -87.90628 | 673 ft | 22 kts | 272° |
| 2026-05-01 14:34 | 41.96738 | -87.90823 | 674 ft | 20 kts | 270° |
| 2026-05-01 14:34 | 41.96738 | -87.91011 | 673 ft | 20 kts | 270° |
| 2026-05-01 14:34 | 41.96738 | -87.91198 | 674 ft | 20 kts | 270° |
| 2026-05-01 14:34 | 41.96737 | -87.91387 | 674 ft | 20 kts | 270° |
| 2026-05-01 14:35 | 41.96737 | -87.91585 | 674 ft | 26 kts | 270° |
| 2026-05-01 14:35 | 41.96737 | -87.91878 | 674 ft | 29 kts | 269° |
| 2026-05-01 14:35 | 41.96737 | -87.92144 | 673 ft | 27 kts | 270° |
| 2026-05-01 14:35 | 41.96737 | -87.92398 | 673 ft | 27 kts | 269° |
| 2026-05-01 14:36 | 41.96746 | -87.92626 | 673 ft | 22 kts | 301° |
| 2026-05-01 14:36 | 41.96889 | -87.92661 | 672 ft | 22 kts | 359° |
| 2026-05-01 14:36 | 41.97039 | -87.92661 | 673 ft | 22 kts | 0° |
| 2026-05-01 14:36 | 41.97139 | -87.92627 | 673 ft | 12 kts | 57° |
| 2026-05-01 14:37 | 41.97154 | -87.92492 | 673 ft | 20 kts | 89° |
| 2026-05-01 14:37 | 41.97155 | -87.92283 | 674 ft | 23 kts | 89° |
| 2026-05-01 14:37 | 41.97156 | -87.92070 | 674 ft | 23 kts | 89° |
| 2026-05-01 14:37 | 41.97155 | -87.91857 | 674 ft | 23 kts | 89° |
| 2026-05-01 14:38 | 41.97154 | -87.91644 | 674 ft | 23 kts | 91° |
| 2026-05-01 14:38 | 41.97156 | -87.91431 | 674 ft | 23 kts | 90° |
| 2026-05-01 14:38 | 41.97158 | -87.91217 | 674 ft | 23 kts | 89° |
| 2026-05-01 14:38 | 41.97156 | -87.91008 | 674 ft | 23 kts | 91° |
| 2026-05-01 14:39 | 41.97150 | -87.90791 | 673 ft | 24 kts | 92° |
| 2026-05-01 14:39 | 41.97144 | -87.90571 | 673 ft | 24 kts | 92° |
| 2026-05-01 14:39 | 41.97137 | -87.90351 | 674 ft | 24 kts | 91° |
| 2026-05-01 14:39 | 41.97136 | -87.90130 | 674 ft | 24 kts | 90° |
| 2026-05-01 14:40 | 41.97141 | -87.89911 | 674 ft | 24 kts | 82° |
| 2026-05-01 14:40 | 41.97201 | -87.89707 | 674 ft | 24 kts | 62° |
| 2026-05-01 14:40 | 41.97223 | -87.89549 | 674 ft | 17 kts | 119° |
| 2026-05-01 14:40 | 41.97195 | -87.89397 | 674 ft | 17 kts | 92° |
| 2026-05-01 14:41 | 41.97196 | -87.89231 | 674 ft | 22 kts | 89° |
| 2026-05-01 14:41 | 41.97195 | -87.89012 | 674 ft | 17 kts | 90° |
| 2026-05-01 14:41 | 41.97231 | -87.88928 | 674 ft | 10 kts | 19° |
| 2026-05-01 14:41 | 41.97303 | -87.88901 | 674 ft | 11 kts | 8° |
| 2026-05-01 14:42 | 41.97335 | -87.88899 | 674 ft | 0 kts | 1° |
| 2026-05-01 14:42 | 41.97341 | -87.88899 | 674 ft | 1 kts | 0° |
| 2026-05-01 14:42 | 41.97353 | -87.88899 | 674 ft | 0 kts | 0° |